createdAt,value
2018-04-26T00:00:22.269Z,935.09
2018-04-26T00:01:22.289Z,935.08
2018-04-26T00:02:22.396Z,935.10
2018-04-26T00:03:22.316Z,935.12
2018-04-26T00:04:22.329Z,935.11
2018-04-26T00:05:22.359Z,935.12
2018-04-26T00:06:22.491Z,935.12
2018-04-26T00:07:22.476Z,935.13
2018-04-26T00:08:22.406Z,935.15
2018-04-26T00:09:22.408Z,935.17
2018-04-26T00:10:22.430Z,935.15
2018-04-26T00:11:22.454Z,935.16
2018-04-26T00:12:22.616Z,935.18
2018-04-26T00:13:22.481Z,935.17
2018-04-26T00:14:22.497Z,935.16
2018-04-26T00:15:22.634Z,935.14
2018-04-26T00:16:22.530Z,935.13
2018-04-26T00:17:22.812Z,935.13
2018-04-26T00:18:22.562Z,935.16
2018-04-26T00:19:22.568Z,935.19
2018-04-26T00:20:22.590Z,935.21
2018-04-26T00:21:22.601Z,935.17
2018-04-26T00:22:22.724Z,935.19
2018-04-26T00:23:22.761Z,935.16
2018-04-26T00:24:22.775Z,935.15
2018-04-26T00:25:22.672Z,935.14
2018-04-26T00:26:22.674Z,935.15
2018-04-26T00:27:22.924Z,935.17
2018-04-26T00:28:22.713Z,935.16
2018-04-26T00:29:22.859Z,935.20
2018-04-26T00:30:22.873Z,935.18
2018-04-26T00:31:22.768Z,935.16
2018-04-26T00:32:22.890Z,935.19
2018-04-26T00:33:22.799Z,935.17
2018-04-26T00:34:23.009Z,935.17
2018-04-26T00:35:22.839Z,935.17
2018-04-26T00:36:22.839Z,935.13
2018-04-26T00:37:23.084Z,935.14
2018-04-26T00:38:23.005Z,935.13
2018-04-26T00:39:23.016Z,935.14
2018-04-26T00:40:22.904Z,935.15
2018-04-26T00:41:23.047Z,935.14
2018-04-26T00:42:23.164Z,935.15
2018-04-26T00:43:22.955Z,935.14
2018-04-26T00:44:22.977Z,935.13
2018-04-26T00:45:23.005Z,935.12
2018-04-26T00:46:23.012Z,935.09
2018-04-26T00:47:23.129Z,935.06
2018-04-26T00:48:23.036Z,935.03
2018-04-26T00:49:23.178Z,935.00
2018-04-26T00:50:23.074Z,935.01
2018-04-26T00:51:23.208Z,934.98
2018-04-26T00:52:23.324Z,934.99
2018-04-26T00:53:23.129Z,934.98
2018-04-26T00:54:23.257Z,934.98
2018-04-26T00:55:23.273Z,935.00
2018-04-26T00:56:23.165Z,934.99
2018-04-26T00:57:23.411Z,935.02
2018-04-26T00:58:23.205Z,934.99
2018-04-26T00:59:23.335Z,934.97
2018-04-26T01:00:23.235Z,934.99
2018-04-26T01:01:23.367Z,934.96
2018-04-26T01:02:23.486Z,934.98
2018-04-26T01:03:23.279Z,934.94
2018-04-26T01:04:23.289Z,934.97
2018-04-26T01:05:23.312Z,934.94
2018-04-26T01:06:23.323Z,934.94
2018-04-26T01:07:23.445Z,934.94
2018-04-26T01:08:23.352Z,934.93
2018-04-26T01:09:23.396Z,934.94
2018-04-26T01:10:23.383Z,934.89
2018-04-26T01:11:23.403Z,934.89
2018-04-26T01:12:23.646Z,934.87
2018-04-26T01:13:23.559Z,934.88
2018-04-26T01:14:23.439Z,934.90
2018-04-26T01:15:23.474Z,934.90
2018-04-26T01:16:23.606Z,934.93
2018-04-26T01:17:23.592Z,934.89
2018-04-26T01:18:23.515Z,934.91
2018-04-26T01:19:23.531Z,934.90
2018-04-26T01:20:23.547Z,934.92
2018-04-26T01:21:23.565Z,934.88
2018-04-26T01:22:23.674Z,934.87
2018-04-26T01:23:23.588Z,934.86
2018-04-26T01:24:23.603Z,934.88
2018-04-26T01:25:23.627Z,934.87
2018-04-26T01:26:23.638Z,934.88
2018-04-26T01:27:23.774Z,934.87
2018-04-26T01:28:23.893Z,934.84
2018-04-26T01:29:23.676Z,934.86
2018-04-26T01:30:23.708Z,934.83
2018-04-26T01:31:23.715Z,934.81
2018-04-26T01:32:23.851Z,934.84
2018-04-26T01:33:23.840Z,934.83
2018-04-26T01:34:23.887Z,934.83
2018-04-26T01:35:23.774Z,934.90
2018-04-26T01:36:23.796Z,934.86
2018-04-26T01:37:23.802Z,934.84
2018-04-26T01:38:23.983Z,934.85
2018-04-26T01:39:23.966Z,934.85
2018-04-26T01:40:23.975Z,934.82
2018-04-26T01:41:23.872Z,934.82
2018-04-26T01:42:23.882Z,934.80
2018-04-26T01:43:24.024Z,934.80
2018-04-26T01:44:24.013Z,934.78
2018-04-26T01:45:23.928Z,934.79
2018-04-26T01:46:23.950Z,934.84
2018-04-26T01:47:23.965Z,934.81
2018-04-26T01:48:24.103Z,934.81
2018-04-26T01:49:24.096Z,934.82
2018-04-26T01:50:24.006Z,934.77
2018-04-26T01:51:24.151Z,934.77
2018-04-26T01:52:24.034Z,934.77
2018-04-26T01:53:24.058Z,934.77
2018-04-26T01:54:24.292Z,934.76
2018-04-26T01:55:24.206Z,934.72
2018-04-26T01:56:24.093Z,934.72
2018-04-26T01:57:24.240Z,934.71
2018-04-26T01:58:24.143Z,934.73
2018-04-26T01:59:24.249Z,934.72
2018-04-26T02:00:24.285Z,934.69
2018-04-26T02:01:24.185Z,934.66
2018-04-26T02:02:24.195Z,934.65
2018-04-26T02:03:24.331Z,934.64
2018-04-26T02:04:24.445Z,934.66
2018-04-26T02:05:24.235Z,934.67
2018-04-26T02:06:24.377Z,934.68
2018-04-26T02:07:24.257Z,934.65
2018-04-26T02:08:24.406Z,934.67
2018-04-26T02:09:24.396Z,934.65
2018-04-26T02:10:24.317Z,934.63
2018-04-26T02:11:24.322Z,934.62
2018-04-26T02:12:24.350Z,934.66
2018-04-26T02:13:24.481Z,934.67
2018-04-26T02:14:24.474Z,934.65
2018-04-26T02:15:24.396Z,934.63
2018-04-26T02:16:24.529Z,934.64
2018-04-26T02:17:24.429Z,934.64
2018-04-26T02:18:24.557Z,934.60
2018-04-26T02:19:24.676Z,934.61
2018-04-26T02:20:24.474Z,934.61
2018-04-26T02:21:24.486Z,934.59
2018-04-26T02:22:24.492Z,934.60
2018-04-26T02:23:24.518Z,934.58
2018-04-26T02:24:24.673Z,934.61
2018-04-26T02:25:24.545Z,934.60
2018-04-26T02:26:24.678Z,934.54
2018-04-26T02:27:24.697Z,934.54
2018-04-26T02:28:24.712Z,934.57
2018-04-26T02:29:24.705Z,934.56
2018-04-26T02:30:24.615Z,934.50
2018-04-26T02:31:24.637Z,934.49
2018-04-26T02:32:24.773Z,934.44
2018-04-26T02:33:24.785Z,934.50
2018-04-26T02:34:24.700Z,934.49
2018-04-26T02:35:24.841Z,934.52
2018-04-26T02:36:24.830Z,934.52
2018-04-26T02:37:24.845Z,934.47
2018-04-26T02:38:24.739Z,934.51
2018-04-26T02:39:24.752Z,934.48
2018-04-26T02:40:24.991Z,934.50
2018-04-26T02:41:24.792Z,934.45
2018-04-26T02:42:24.799Z,934.43
2018-04-26T02:43:24.935Z,934.43
2018-04-26T02:44:24.833Z,934.42
2018-04-26T02:45:25.066Z,934.43
2018-04-26T02:46:24.864Z,934.43
2018-04-26T02:47:24.870Z,934.42
2018-04-26T02:48:24.892Z,934.38
2018-04-26T02:49:25.026Z,934.38
2018-04-26T02:50:24.916Z,934.36
2018-04-26T02:51:25.036Z,934.33
2018-04-26T02:52:24.947Z,934.33
2018-04-26T02:53:25.090Z,934.34
2018-04-26T02:54:25.102Z,934.34
2018-04-26T02:55:25.004Z,934.36
2018-04-26T02:56:25.231Z,934.37
2018-04-26T02:57:25.033Z,934.34
2018-04-26T02:58:25.034Z,934.37
2018-04-26T02:59:25.049Z,934.37
2018-04-26T03:00:25.065Z,934.33
2018-04-26T03:01:25.309Z,934.34
2018-04-26T03:02:25.222Z,934.33
2018-04-26T03:03:25.111Z,934.31
2018-04-26T03:04:25.251Z,934.33
2018-04-26T03:05:25.271Z,934.32
2018-04-26T03:06:25.383Z,934.30
2018-04-26T03:07:25.179Z,934.28
2018-04-26T03:08:25.295Z,934.27
2018-04-26T03:09:25.204Z,934.27
2018-04-26T03:10:25.228Z,934.24
2018-04-26T03:11:25.327Z,934.24
2018-04-26T03:12:25.253Z,934.25
2018-04-26T03:13:25.388Z,934.23
2018-04-26T03:14:25.290Z,934.23
2018-04-26T03:15:25.288Z,934.24
2018-04-26T03:16:25.532Z,934.25
2018-04-26T03:17:25.327Z,934.22
2018-04-26T03:18:25.335Z,934.22
2018-04-26T03:19:25.494Z,934.20
2018-04-26T03:20:25.367Z,934.22
2018-04-26T03:21:25.611Z,934.19
2018-04-26T03:22:25.523Z,934.22
2018-04-26T03:23:25.408Z,934.20
2018-04-26T03:24:25.434Z,934.23
2018-04-26T03:25:25.453Z,934.28
2018-04-26T03:26:25.571Z,934.27
2018-04-26T03:27:25.483Z,934.30
2018-04-26T03:28:25.610Z,934.32
2018-04-26T03:29:25.499Z,934.30
2018-04-26T03:30:25.643Z,934.32
2018-04-26T03:32:25.672Z,934.31
2018-04-26T03:33:25.688Z,934.31
2018-04-26T03:34:25.575Z,934.31
2018-04-26T03:35:25.588Z,934.29
2018-04-26T03:36:25.711Z,934.30
2018-04-26T03:37:25.792Z,934.29
2018-04-26T03:38:25.643Z,934.35
2018-04-26T03:39:25.778Z,934.33
2018-04-26T03:40:25.789Z,934.37
2018-04-26T03:41:25.806Z,934.35
2018-04-26T03:42:25.795Z,934.35
2018-04-26T03:43:25.836Z,934.34
2018-04-26T03:44:25.722Z,934.31
2018-04-26T03:45:25.746Z,934.30
2018-04-26T03:46:25.880Z,934.30
2018-04-26T03:47:25.927Z,934.25
2018-04-26T03:48:25.785Z,934.25
2018-04-26T03:49:25.799Z,934.22
2018-04-26T03:50:25.939Z,934.20
2018-04-26T03:51:25.828Z,934.16
2018-04-26T03:52:25.957Z,934.13
2018-04-26T03:53:25.984Z,934.11
2018-04-26T03:54:26.006Z,934.09
2018-04-26T03:55:25.901Z,934.09
2018-04-26T03:56:25.907Z,934.08
2018-04-26T03:57:25.912Z,934.09
2018-04-26T03:58:26.161Z,934.15
2018-04-26T03:59:26.073Z,934.10
2018-04-26T04:00:25.970Z,934.11
2018-04-26T04:01:26.105Z,934.07
2018-04-26T04:02:26.119Z,934.07
2018-04-26T04:03:26.109Z,934.05
2018-04-26T04:04:26.030Z,934.03
2018-04-26T04:05:26.045Z,934.03
2018-04-26T04:06:26.054Z,934.04
2018-04-26T04:07:26.074Z,934.04
2018-04-26T04:08:26.359Z,934.06
2018-04-26T04:09:26.222Z,934.05
2018-04-26T04:10:26.238Z,934.05
2018-04-26T04:11:26.124Z,934.06
2018-04-26T04:12:26.148Z,934.08
2018-04-26T04:13:26.434Z,934.06
2018-04-26T04:14:26.169Z,934.07
2018-04-26T04:15:26.197Z,934.05
2018-04-26T04:16:26.328Z,934.06
2018-04-26T04:17:26.340Z,934.00
2018-04-26T04:18:26.459Z,933.95
2018-04-26T04:19:26.369Z,933.95
2018-04-26T04:20:26.259Z,933.91
2018-04-26T04:21:26.275Z,933.91
2018-04-26T04:22:26.298Z,933.92
2018-04-26T04:23:26.402Z,933.92
2018-04-26T04:24:26.446Z,933.89
2018-04-26T04:25:26.460Z,933.86
2018-04-26T04:26:26.348Z,933.84
2018-04-26T04:27:26.376Z,933.86
2018-04-26T04:28:26.604Z,933.82
2018-04-26T04:29:26.520Z,933.80
2018-04-26T04:30:26.533Z,933.81
2018-04-26T04:31:26.418Z,933.78
2018-04-26T04:32:26.563Z,933.75
2018-04-26T04:33:26.679Z,933.75
2018-04-26T04:34:26.594Z,933.78
2018-04-26T04:35:26.495Z,933.75
2018-04-26T04:36:26.622Z,933.79
2018-04-26T04:37:26.518Z,933.78
2018-04-26T04:38:26.652Z,933.73
2018-04-26T04:39:26.768Z,933.76
2018-04-26T04:40:26.681Z,933.73
2018-04-26T04:41:26.695Z,933.72
2018-04-26T04:42:26.714Z,933.76
2018-04-26T04:43:26.725Z,933.73
2018-04-26T04:44:26.840Z,933.74
2018-04-26T04:45:26.755Z,933.72
2018-04-26T04:46:26.650Z,933.70
2018-04-26T04:47:26.784Z,933.70
2018-04-26T04:48:26.680Z,933.69
2018-04-26T04:49:26.814Z,933.68
2018-04-26T04:50:26.929Z,933.68
2018-04-26T04:51:26.715Z,933.68
2018-04-26T04:52:26.738Z,933.64
2018-04-26T04:53:26.872Z,933.67
2018-04-26T04:54:26.758Z,933.65
2018-04-26T04:55:26.774Z,933.62
2018-04-26T04:56:27.018Z,933.60
2018-04-26T04:57:26.934Z,933.59
2018-04-26T04:58:26.946Z,933.62
2018-04-26T04:59:26.963Z,933.62
2018-04-26T05:00:26.975Z,933.62
2018-04-26T05:01:27.091Z,933.59
2018-04-26T05:02:26.879Z,933.60
2018-04-26T05:03:26.902Z,933.59
2018-04-26T05:04:26.907Z,933.61
2018-04-26T05:05:26.921Z,933.59
2018-04-26T05:06:27.051Z,933.60
2018-04-26T05:07:27.126Z,933.67
2018-04-26T05:08:26.975Z,933.63
2018-04-26T05:09:27.106Z,933.60
2018-04-26T05:10:27.000Z,933.65
2018-04-26T05:11:27.239Z,933.61
2018-04-26T05:12:27.153Z,933.60
2018-04-26T05:13:27.165Z,933.59
2018-04-26T05:14:27.184Z,933.61
2018-04-26T05:15:27.066Z,933.60
2018-04-26T05:16:27.311Z,933.58
2018-04-26T05:17:27.110Z,933.59
2018-04-26T05:18:27.240Z,933.62
2018-04-26T05:19:27.136Z,933.62
2018-04-26T05:20:27.142Z,933.59
2018-04-26T05:21:27.389Z,933.61
2018-04-26T05:22:27.172Z,933.56
2018-04-26T05:23:27.196Z,933.58
2018-04-26T05:24:27.328Z,933.57
2018-04-26T05:25:27.345Z,933.58
2018-04-26T05:26:27.344Z,933.55
2018-04-26T05:27:27.244Z,933.55
2018-04-26T05:28:27.388Z,933.51
2018-04-26T05:29:27.272Z,933.52
2018-04-26T05:30:27.295Z,933.54
2018-04-26T05:31:27.416Z,933.49
2018-04-26T05:32:27.447Z,933.49
2018-04-26T05:33:27.459Z,933.50
2018-04-26T05:34:27.356Z,933.48
2018-04-26T05:35:27.489Z,933.51
2018-04-26T05:36:27.490Z,933.49
2018-04-26T05:37:27.390Z,933.46
2018-04-26T05:38:27.411Z,933.46
2018-04-26T05:39:27.546Z,933.42
2018-04-26T05:40:27.576Z,933.43
2018-04-26T05:41:27.547Z,933.43
2018-04-26T05:42:27.472Z,933.41
2018-04-26T05:43:27.604Z,933.47
2018-04-26T05:44:27.621Z,933.44
2018-04-26T05:45:27.509Z,933.37
2018-04-26T05:46:27.749Z,933.41
2018-04-26T05:47:27.688Z,933.37
2018-04-26T05:48:27.552Z,933.31
2018-04-26T05:49:27.698Z,933.35
2018-04-26T05:50:27.707Z,933.32
2018-04-26T05:51:27.821Z,933.31
2018-04-26T05:52:27.624Z,933.26
2018-04-26T05:53:27.634Z,933.28
2018-04-26T05:54:27.653Z,933.30
2018-04-26T05:55:27.783Z,933.26
2018-04-26T05:56:27.668Z,933.26
2018-04-26T05:57:27.792Z,933.21
2018-04-26T05:58:27.711Z,933.25
2018-04-26T05:59:27.839Z,933.25
2018-04-26T06:00:27.725Z,933.22
2018-04-26T06:01:27.868Z,933.26
2018-04-26T06:02:27.765Z,933.22
2018-04-26T06:03:27.918Z,933.26
2018-04-26T06:04:27.912Z,933.21
2018-04-26T06:05:27.813Z,933.25
2018-04-26T06:06:27.818Z,933.24
2018-04-26T06:07:27.865Z,933.30
2018-04-26T06:08:28.072Z,933.28
2018-04-26T06:09:27.865Z,933.27
2018-04-26T06:10:27.872Z,933.23
2018-04-26T06:11:27.887Z,933.24
2018-04-26T06:12:27.902Z,933.18
2018-04-26T06:13:28.015Z,933.18
2018-04-26T06:14:28.057Z,933.19
2018-04-26T06:15:28.072Z,933.21
2018-04-26T06:16:27.972Z,933.20
2018-04-26T06:17:28.099Z,933.20
2018-04-26T06:18:27.995Z,933.20
2018-04-26T06:19:28.115Z,933.21
2018-04-26T06:20:28.020Z,933.19
2018-04-26T06:21:28.031Z,933.17
2018-04-26T06:22:28.053Z,933.16
2018-04-26T06:23:28.062Z,933.17
2018-04-26T06:24:28.168Z,933.14
2018-04-26T06:25:28.100Z,933.13
2018-04-26T06:26:28.230Z,933.13
2018-04-26T06:27:28.116Z,933.16
2018-04-26T06:28:28.133Z,933.15
2018-04-26T06:29:28.261Z,933.11
2018-04-26T06:30:28.160Z,933.12
2018-04-26T06:31:28.189Z,933.10
2018-04-26T06:32:28.318Z,933.13
2018-04-26T06:33:28.332Z,933.13
2018-04-26T06:34:28.331Z,933.12
2018-04-26T06:35:28.358Z,933.13
2018-04-26T06:36:28.373Z,933.12
2018-04-26T06:37:28.262Z,933.10
2018-04-26T06:38:28.277Z,933.09
2018-04-26T06:39:28.415Z,933.11
2018-04-26T06:40:28.405Z,933.15
2018-04-26T06:41:28.447Z,933.14
2018-04-26T06:42:28.343Z,933.11
2018-04-26T06:43:28.475Z,933.08
2018-04-26T06:44:28.485Z,933.05
2018-04-26T06:45:28.651Z,933.05
2018-04-26T06:46:28.392Z,933.05
2018-04-26T06:47:28.409Z,933.02
2018-04-26T06:48:28.543Z,932.99
2018-04-26T06:49:28.430Z,932.98
2018-04-26T06:50:28.724Z,933.00
2018-04-26T06:51:28.464Z,932.96
2018-04-26T06:52:28.604Z,932.97
2018-04-26T06:53:28.519Z,932.95
2018-04-26T06:54:28.630Z,932.94
2018-04-26T06:55:28.670Z,932.91
2018-04-26T06:56:28.661Z,932.91
2018-04-26T06:57:28.560Z,932.91
2018-04-26T06:58:28.689Z,932.91
2018-04-26T06:59:28.587Z,932.85
2018-04-26T07:00:28.784Z,932.87
2018-04-26T07:01:28.733Z,932.85
2018-04-26T07:02:28.626Z,932.88
2018-04-26T07:03:28.634Z,932.86
2018-04-26T07:04:28.772Z,932.83
2018-04-26T07:05:28.667Z,932.85
2018-04-26T07:06:28.778Z,932.82
2018-04-26T07:07:28.816Z,932.80
2018-04-26T07:08:28.702Z,932.73
2018-04-26T07:09:28.716Z,932.77
2018-04-26T07:10:28.858Z,932.74
2018-04-26T07:11:28.760Z,932.73
2018-04-26T07:12:28.985Z,932.73
2018-04-26T07:13:28.773Z,932.75
2018-04-26T07:14:28.797Z,932.74
2018-04-26T07:15:28.823Z,932.75
2018-04-26T07:16:28.815Z,932.73
2018-04-26T07:17:28.981Z,932.78
2018-04-26T07:18:28.852Z,932.75
2018-04-26T07:19:28.860Z,932.72
2018-04-26T07:20:28.881Z,932.71
2018-04-26T07:21:28.902Z,932.72
2018-04-26T07:22:29.184Z,932.72
2018-04-26T07:23:29.043Z,932.72
2018-04-26T07:24:28.929Z,932.72
2018-04-26T07:25:28.950Z,932.69
2018-04-26T07:26:28.972Z,932.74
2018-04-26T07:27:29.088Z,932.70
2018-04-26T07:28:29.115Z,932.72
2018-04-26T07:29:29.131Z,932.70
2018-04-26T07:30:29.031Z,932.69
2018-04-26T07:31:29.165Z,932.72
2018-04-26T07:32:29.322Z,932.72
2018-04-26T07:33:29.067Z,932.74
2018-04-26T07:34:29.075Z,932.75
2018-04-26T07:35:29.215Z,932.72
2018-04-26T07:36:29.229Z,932.75
2018-04-26T07:37:29.270Z,932.73
2018-04-26T07:38:29.139Z,932.74
2018-04-26T07:39:29.144Z,932.76
2018-04-26T07:40:29.163Z,932.81
2018-04-26T07:41:29.307Z,932.78
2018-04-26T07:42:29.304Z,932.80
2018-04-26T07:43:29.329Z,932.78
2018-04-26T07:44:29.347Z,932.77
2018-04-26T07:45:29.363Z,932.80
2018-04-26T07:46:29.258Z,932.78
2018-04-26T07:47:29.410Z,932.79
2018-04-26T07:48:29.282Z,932.76
2018-04-26T07:49:29.417Z,932.78
2018-04-26T07:50:29.317Z,932.78
2018-04-26T07:51:29.330Z,932.78
2018-04-26T07:52:29.487Z,932.78
2018-04-26T07:53:29.481Z,932.78
2018-04-26T07:54:29.375Z,932.75
2018-04-26T07:55:29.383Z,932.76
2018-04-26T07:56:29.516Z,932.79
2018-04-26T07:57:29.413Z,932.84
2018-04-26T07:58:29.568Z,932.83
2018-04-26T07:59:29.559Z,932.88
2018-04-26T08:00:29.446Z,932.89
2018-04-26T08:01:29.501Z,932.89
2018-04-26T08:02:29.476Z,932.89
2018-04-26T08:03:29.499Z,932.86
2018-04-26T08:04:29.657Z,932.87
2018-04-26T08:05:29.524Z,932.86
2018-04-26T08:06:29.660Z,932.90
2018-04-26T08:07:29.561Z,932.88
2018-04-26T08:08:29.557Z,932.94
2018-04-26T08:09:29.740Z,932.94
2018-04-26T08:10:29.719Z,932.93
2018-04-26T08:11:29.729Z,932.98
2018-04-26T08:12:29.630Z,932.98
2018-04-26T08:13:29.636Z,933.00
2018-04-26T08:14:29.806Z,933.01
2018-04-26T08:15:29.662Z,932.97
2018-04-26T08:16:29.683Z,933.00
2018-04-26T08:17:29.689Z,932.97
2018-04-26T08:18:29.830Z,932.98
2018-04-26T08:19:29.716Z,932.97
2018-04-26T08:20:30.012Z,933.01
2018-04-26T08:21:29.753Z,933.03
2018-04-26T08:22:29.781Z,933.05
2018-04-26T08:23:29.789Z,933.03
2018-04-26T08:24:29.806Z,933.10
2018-04-26T08:25:29.957Z,933.06
2018-04-26T08:26:29.821Z,933.10
2018-04-26T08:27:29.833Z,933.12
2018-04-26T08:28:29.854Z,933.13
2018-04-26T08:29:29.988Z,933.13
2018-04-26T08:30:29.913Z,933.16
2018-04-26T08:31:30.116Z,933.17
2018-04-26T08:32:30.032Z,933.20
2018-04-26T08:33:29.928Z,933.16
2018-04-26T08:34:29.932Z,933.17
2018-04-26T08:35:30.074Z,933.21
2018-04-26T08:36:30.061Z,933.24
2018-04-26T08:37:29.992Z,933.21
2018-04-26T08:38:29.992Z,933.22
2018-04-26T08:39:30.018Z,933.24
2018-04-26T08:40:30.028Z,933.26
2018-04-26T08:41:30.317Z,933.27
2018-04-26T08:42:30.046Z,933.25
2018-04-26T08:43:30.058Z,933.28
2018-04-26T08:44:30.088Z,933.28
2018-04-26T08:45:30.123Z,933.31
2018-04-26T08:46:30.382Z,933.32
2018-04-26T08:47:30.117Z,933.36
2018-04-26T08:48:30.142Z,933.38
2018-04-26T08:49:30.274Z,933.38
2018-04-26T08:50:30.160Z,933.36
2018-04-26T08:51:30.332Z,933.38
2018-04-26T08:52:30.315Z,933.40
2018-04-26T08:53:30.329Z,933.42
2018-04-26T08:54:30.231Z,933.36
2018-04-26T08:55:30.257Z,933.42
2018-04-26T08:56:30.346Z,933.43
2018-04-26T08:57:30.257Z,933.44
2018-04-26T08:58:30.287Z,933.44
2018-04-26T08:59:30.415Z,933.47
2018-04-26T09:00:30.311Z,933.43
2018-04-26T09:01:30.546Z,933.44
2018-04-26T09:02:30.336Z,933.41
2018-04-26T09:03:30.346Z,933.46
2018-04-26T09:04:30.365Z,933.47
2018-04-26T09:05:30.372Z,933.45
2018-04-26T09:06:30.664Z,933.45
2018-04-26T09:07:30.526Z,933.47
2018-04-26T09:08:30.540Z,933.47
2018-04-26T09:09:30.444Z,933.51
2018-04-26T09:10:30.575Z,933.51
2018-04-26T09:11:30.569Z,933.50
2018-04-26T09:12:30.469Z,933.48
2018-04-26T09:13:30.614Z,933.54
2018-04-26T09:14:30.500Z,933.53
2018-04-26T09:15:30.643Z,933.52
2018-04-26T09:16:30.537Z,933.56
2018-04-26T09:17:30.820Z,933.54
2018-04-26T09:18:30.557Z,933.55
2018-04-26T09:19:30.578Z,933.59
2018-04-26T09:20:30.587Z,933.58
2018-04-26T09:21:30.724Z,933.62
2018-04-26T09:22:30.891Z,933.61
2018-04-26T09:23:30.640Z,933.61
2018-04-26T09:24:30.770Z,933.63
2018-04-26T09:25:30.785Z,933.64
2018-04-26T09:26:30.676Z,933.64
2018-04-26T09:27:30.834Z,933.64
2018-04-26T09:28:30.828Z,933.64
2018-04-26T09:29:30.839Z,933.67
2018-04-26T09:30:30.857Z,933.68
2018-04-26T09:31:30.747Z,933.71
2018-04-26T09:32:31.030Z,933.72
2018-04-26T09:33:30.898Z,933.72
2018-04-26T09:34:30.908Z,933.68
2018-04-26T09:35:30.810Z,933.74
2018-04-26T09:36:30.821Z,933.75
2018-04-26T09:37:31.050Z,933.71
2018-04-26T09:38:30.852Z,933.76
2018-04-26T09:39:30.851Z,933.73
2018-04-26T09:40:30.992Z,933.75
2018-04-26T09:41:30.887Z,933.76
2018-04-26T09:42:30.995Z,933.78
2018-04-26T09:43:31.036Z,933.81
2018-04-26T09:44:30.926Z,933.82
2018-04-26T09:45:31.065Z,933.84
2018-04-26T09:46:30.967Z,933.89
2018-04-26T09:47:31.242Z,933.92
2018-04-26T09:48:31.111Z,933.93
2018-04-26T09:49:31.008Z,933.93
2018-04-26T09:50:31.106Z,933.94
2018-04-26T09:51:31.149Z,933.96
2018-04-26T09:52:31.150Z,933.97
2018-04-26T09:53:31.053Z,934.00
2018-04-26T09:54:31.194Z,934.04
2018-04-26T09:55:31.210Z,934.08
2018-04-26T09:56:31.103Z,934.10
2018-04-26T09:57:31.272Z,934.12
2018-04-26T09:58:31.269Z,934.12
2018-04-26T09:59:31.264Z,934.17
2018-04-26T10:00:31.155Z,934.17
2018-04-26T10:01:31.294Z,934.16
2018-04-26T10:02:31.469Z,934.17
2018-04-26T10:03:31.203Z,934.21
2018-04-26T10:04:31.337Z,934.20
2018-04-26T10:05:31.234Z,934.22
2018-04-26T10:06:31.372Z,934.23
2018-04-26T10:07:31.420Z,934.27
2018-04-26T10:08:31.268Z,934.25
2018-04-26T10:09:31.294Z,934.29
2018-04-26T10:10:31.315Z,934.33
2018-04-26T10:11:31.441Z,934.32
2018-04-26T10:12:31.456Z,934.29
2018-04-26T10:13:31.352Z,934.31
2018-04-26T10:14:31.358Z,934.33
2018-04-26T10:15:31.381Z,934.32
2018-04-26T10:16:31.385Z,934.36
2018-04-26T10:17:31.629Z,934.36
2018-04-26T10:18:31.419Z,934.35
2018-04-26T10:19:31.441Z,934.35
2018-04-26T10:20:31.448Z,934.40
2018-04-26T10:21:31.465Z,934.39
2018-04-26T10:22:31.706Z,934.43
2018-04-26T10:23:31.500Z,934.45
2018-04-26T10:24:31.511Z,934.46
2018-04-26T10:25:31.651Z,934.48
2018-04-26T10:26:31.667Z,934.50
2018-04-26T10:27:31.651Z,934.51
2018-04-26T10:28:31.699Z,934.53
2018-04-26T10:29:31.612Z,934.55
2018-04-26T10:30:31.731Z,934.58
2018-04-26T10:31:31.629Z,934.53
2018-04-26T10:32:31.783Z,934.56
2018-04-26T10:33:31.677Z,934.52
2018-04-26T10:34:31.791Z,934.55
2018-04-26T10:35:31.682Z,934.57
2018-04-26T10:36:31.703Z,934.58
2018-04-26T10:37:31.823Z,934.54
2018-04-26T10:38:31.854Z,934.62
2018-04-26T10:39:31.755Z,934.64
2018-04-26T10:40:31.764Z,934.63
2018-04-26T10:41:31.789Z,934.61
2018-04-26T10:42:31.900Z,934.64
2018-04-26T10:43:31.936Z,934.64
2018-04-26T10:44:31.832Z,934.59
2018-04-26T10:45:31.849Z,934.62
2018-04-26T10:46:31.985Z,934.61
2018-04-26T10:47:31.974Z,934.59
2018-04-26T10:48:31.898Z,934.65
2018-04-26T10:49:31.908Z,934.64
2018-04-26T10:50:31.924Z,934.65
2018-04-26T10:51:31.946Z,934.67
2018-04-26T10:52:32.186Z,934.68
2018-04-26T10:53:31.973Z,934.72
2018-04-26T10:54:32.115Z,934.75
2018-04-26T10:55:32.007Z,934.77
2018-04-26T10:56:32.037Z,934.78
2018-04-26T10:57:32.192Z,934.80
2018-04-26T10:58:32.186Z,934.80
2018-04-26T10:59:32.080Z,934.79
2018-04-26T11:00:32.085Z,934.82
2018-04-26T11:01:32.122Z,934.83
2018-04-26T11:02:32.401Z,934.86
2018-04-26T11:03:32.141Z,934.87
2018-04-26T11:04:32.170Z,934.87
2018-04-26T11:05:32.193Z,934.89
2018-04-26T11:06:32.320Z,934.92
2018-04-26T11:07:32.371Z,934.91
2018-04-26T11:08:32.229Z,934.95
2018-04-26T11:09:32.241Z,934.95
2018-04-26T11:10:32.266Z,934.95
2018-04-26T11:11:32.290Z,935.00
2018-04-26T11:12:32.402Z,934.94
2018-04-26T11:13:32.311Z,934.95
2018-04-26T11:14:32.334Z,934.96
2018-04-26T11:15:32.451Z,934.95
2018-04-26T11:16:32.369Z,934.97
2018-04-26T11:17:32.379Z,934.94
2018-04-26T11:18:32.502Z,934.96
2018-04-26T11:19:32.541Z,934.95
2018-04-26T11:20:32.561Z,935.00
2018-04-26T11:21:32.578Z,935.00
2018-04-26T11:22:32.479Z,935.00
2018-04-26T11:23:32.808Z,935.05
2018-04-26T11:24:32.514Z,935.05
2018-04-26T11:25:32.644Z,935.05
2018-04-26T11:26:32.691Z,935.06
2018-04-26T11:27:32.559Z,935.05
2018-04-26T11:28:32.800Z,935.07
2018-04-26T11:29:32.589Z,935.11
2018-04-26T11:30:32.618Z,935.11
2018-04-26T11:31:32.625Z,935.12
2018-04-26T11:32:32.648Z,935.09
2018-04-26T11:33:32.823Z,935.10
2018-04-26T11:34:32.752Z,935.09
2018-04-26T11:35:32.712Z,935.05
2018-04-26T11:36:32.715Z,935.11
2018-04-26T11:37:32.738Z,935.13
2018-04-26T11:38:32.901Z,935.13
2018-04-26T11:39:32.890Z,935.14
2018-04-26T11:40:32.911Z,935.16
2018-04-26T11:41:32.928Z,935.18
2018-04-26T11:42:32.948Z,935.21
2018-04-26T11:43:32.947Z,935.18
2018-04-26T11:44:32.856Z,935.15
2018-04-26T11:45:32.881Z,935.15
2018-04-26T11:46:32.893Z,935.17
2018-04-26T11:47:32.917Z,935.16
2018-04-26T11:48:33.157Z,935.20
2018-04-26T11:49:33.073Z,935.24
2018-04-26T11:50:33.091Z,935.22
2018-04-26T11:51:32.993Z,935.24
2018-04-26T11:52:33.059Z,935.24
2018-04-26T11:53:33.246Z,935.23
2018-04-26T11:54:33.165Z,935.19
2018-04-26T11:55:33.062Z,935.20
2018-04-26T11:56:33.075Z,935.21
2018-04-26T11:57:33.094Z,935.21
2018-04-26T11:58:33.272Z,935.26
2018-04-26T11:59:33.134Z,935.22
2018-04-26T12:00:33.152Z,935.21
2018-04-26T12:01:33.183Z,935.23
2018-04-26T12:02:33.264Z,935.26
2018-04-26T12:03:33.318Z,935.23
2018-04-26T12:04:33.228Z,935.21
2018-04-26T12:05:33.247Z,935.20
2018-04-26T12:06:33.395Z,935.24
2018-04-26T12:07:33.285Z,935.30
2018-04-26T12:08:33.456Z,935.28
2018-04-26T12:09:33.332Z,935.25
2018-04-26T12:10:33.357Z,935.28
2018-04-26T12:11:33.489Z,935.26
2018-04-26T12:12:33.511Z,935.28
2018-04-26T12:13:33.682Z,935.28
2018-04-26T12:14:33.550Z,935.36
2018-04-26T12:15:33.455Z,935.37
2018-04-26T12:16:33.475Z,935.30
2018-04-26T12:17:33.607Z,935.29
2018-04-26T12:18:33.793Z,935.37
2018-04-26T12:19:33.526Z,935.43
2018-04-26T12:20:33.667Z,935.39
2018-04-26T12:21:33.570Z,935.35
2018-04-26T12:22:33.596Z,935.34
2018-04-26T12:23:33.704Z,935.32
2018-04-26T12:24:33.749Z,935.29
2018-04-26T12:25:33.648Z,935.32
2018-04-26T12:26:33.792Z,935.29
2018-04-26T12:27:33.815Z,935.28
2018-04-26T12:28:33.932Z,935.26
2018-04-26T12:29:33.855Z,935.30